Tropical Cyclones
[Index]
Main Index Home Page Stock Weather Photos Extreme Storms Discussion Storm News and Storm Chasing Reports Tropical Cyclones / Hurricanes / Typhoons Weather Data and Links Wild Fires / Bushfires Weather Observation Techniques Weather Picture Catalogue Tornado Pictures and Reports Stock Video Footage and DVDs for sale
Season 2000-2001 Tropical Cyclone WALTER Track Map
Season 2000-2001 Summaries (Operational Data): [AU] [SIO] [SPAC] [SH]
<<- Previous TC | 2000-2001 Season | Next TC ->>

click for intensity scale information  Lat/long Grid: Show Hide

 Date Labels: Show Hide

Operational Tropical Cyclone Data : JTWC Advisories

Name: WALTER
Number: 0117

01 Apr 2001 04:00 UTC to 08 Apr 2001 10:00 UTC

    date/time    lat    long     hPa   cat  kts
2001-04-01 04   10.8   110.8    1007         25          
2001-04-01 10   10.7   110.1    1007         25          
2001-04-01 22   10.5   110.5    1007         25          
2001-04-02 04   10.0   108.0     995    1    45          
2001-04-02 10    9.9   106.8     995    1    45          
2001-04-02 16    9.6   106.1     995    1    45          
2001-04-02 22    9.8   105.2     990    1    45          
2001-04-03 04    9.7   103.8     985    2    50          
2001-04-03 10    9.9   102.5     985    2    50          
2001-04-03 16   10.0   101.8     980    2    55          
2001-04-03 22   10.1   101.0     960    3    65          
2001-04-04 01   10.1   100.6     960    3    65          
2001-04-04 04   10.3   100.0     960    3    65          
2001-04-04 10   10.5    98.7     960    3    65          
2001-04-04 16   10.7    98.2     950    3    80          
2001-04-04 22   11.3    97.0     955    3    80          
2001-04-05 04   11.7    96.6     975    2    60          
2001-04-05 10   12.1    96.1     975    2    60          
2001-04-05 16   12.6    95.6     975    2    60          
2001-04-05 22   12.8    95.4     970    3    65          
2001-04-06 04   13.2    95.2     970    3    65          
2001-04-06 10   13.7    94.8     970    3    65          
2001-04-06 16   14.2    94.2     970    3    65          
2001-04-06 22   15.0    94.0     970    3    65          
2001-04-07 04   16.4    95.0     970    3    65          
2001-04-07 10   16.5    95.7     980    2    55          
2001-04-07 16   18.3    95.4     980    2    55          
2001-04-07 22   19.8    96.8     985    1    45          
2001-04-08 04   20.6    94.7     995    1    40          
2001-04-08 10   21.0    94.8     998         30          
Winds are 10-min average.

Tropical cyclone tracks developed by Michael Bath using operational warnings and advisories and Google Maps.


[Australian Severe Weather index] [Copyright Notice] [Email Contacts] [Search This Site] [Privacy Policy]
Document: tropical_cyclone_walter.htm Updated: 28 May 2013